Time;durP1;ratioP1;P1;durP2;ratioP2;P2;SDS_P1;SDS_P2;PMS_P1;PMS_P2;Temp;Humidity;BMP_temperature;BMP_pressure;BME280_temperature;BME280_humidity;BME280_pressure;Samples;Min_cycle;Max_cycle;Signal;HPM_P1;HPM_P2
2023/04/04 00:00:38;;;;;;;11.35;3.55;;;2.70;99.90;;;;;;5091745;28;20051;-66
2023/04/04 00:03:04;;;;;;;;;;;2.60;99.90;;;;;;5092614;28;20052;-67
2023/04/04 00:05:30;;;;;;;4.93;2.88;;;2.60;99.90;;;;;;5092006;28;19949;-67
2023/04/04 00:07:56;;;;;;;5.68;3.25;;;2.50;99.90;;;;;;5092033;28;20055;-67
2023/04/04 00:10:22;;;;;;;9.10;3.63;;;;;;;;;;5092190;28;20048;-67
2023/04/04 00:12:48;;;;;;;7.40;3.15;;;;;;;;;;5091472;28;20510;-66
2023/04/04 00:15:14;;;;;;;9.38;3.85;;;2.60;99.90;;;;;;5091998;28;20052;-71
2023/04/04 00:17:40;;;;;;;7.50;3.50;;;2.50;99.90;;;;;;5091843;28;20051;-67
2023/04/04 00:20:06;;;;;;;6.25;3.17;;;2.40;99.90;;;;;;5091817;28;20048;-67
2023/04/04 00:22:32;;;;;;;7.25;3.35;;;2.50;99.90;;;;;;5091940;28;20051;-67
2023/04/04 00:24:57;;;;;;;7.22;3.17;;;2.50;99.90;;;;;;5091591;28;20471;-66
2023/04/04 00:27:23;;;;;;;9.63;4.25;;;2.60;99.90;;;;;;5091406;28;20055;-66
2023/04/04 00:29:49;;;;;;;7.53;3.40;;;2.50;99.90;;;;;;5091657;28;20056;-70
2023/04/04 00:32:15;;;;;;;12.30;4.15;;;2.30;99.90;;;;;;5091656;28;20043;-66
2023/04/04 00:34:41;;;;;;;11.63;4.00;;;2.50;99.90;;;;;;5091888;28;20101;-66
2023/04/04 00:37:06;;;;;;;10.52;4.05;;;2.30;99.90;;;;;;5091589;28;20083;-67
2023/04/04 00:39:33;;;;;;;7.30;4.05;;;;;;;;;;5091575;28;20048;-69
2023/04/04 00:41:59;;;;;;;;;;;;;;;;;;5091902;28;20051;-67
2023/04/04 00:44:25;;;;;;;9.32;4.10;;;2.40;99.90;;;;;;5091912;28;19920;-66
2023/04/04 00:46:51;;;;;;;7.10;4.20;;;2.30;99.90;;;;;;5092075;28;20050;-67
2023/04/04 00:49:17;;;;;;;6.82;3.55;;;2.40;99.90;;;;;;5093704;28;20044;-66
2023/04/04 00:51:43;;;;;;;10.75;3.95;;;2.40;99.90;;;;;;5095745;28;20059;-69
2023/04/04 00:54:09;;;;;;;10.60;4.22;;;;;;;;;;5096051;28;20058;-69
2023/04/04 00:56:38;;;;;;;10.45;3.97;;;2.60;99.90;;;;;;5095784;28;20480;-67
2023/04/04 00:59:04;;;;;;;12.57;4.40;;;;;;;;;;5095867;28;20113;-67
2023/04/04 01:01:31;;;;;;;;;;;2.70;99.90;;;;;;5096282;28;20508;-67
2023/04/04 01:03:57;;;;;;;7.25;3.75;;;2.30;99.90;;;;;;5095885;28;20338;-67
2023/04/04 01:06:23;;;;;;;13.43;4.35;;;2.40;99.90;;;;;;5095689;28;20059;-67
2023/04/04 01:08:51;;;;;;;9.02;3.88;;;2.40;99.90;;;;;;5095486;28;20189;-67
2023/04/04 01:11:17;;;;;;;11.50;4.60;;;2.40;99.90;;;;;;5094670;28;20048;-67
2023/04/04 01:13:43;;;;;;;7.65;3.90;;;;;;;;;;5095659;28;20044;-66
2023/04/04 01:16:09;;;;;;;9.43;4.03;;;2.40;99.90;;;;;;5095700;28;20063;-71
2023/04/04 01:18:37;;;;;;;11.65;4.63;;;2.20;99.90;;;;;;5095687;28;20080;-67
2023/04/04 01:21:09;;;;;;;6.88;3.95;;;2.20;99.90;;;;;;5095578;28;20499;-67
2023/04/04 01:23:45;;;;;;;12.38;4.68;;;;;;;;;;5095410;28;20058;-68
2023/04/04 01:26:10;;;;;;;9.05;4.30;;;2.20;99.90;;;;;;5095317;28;20052;-67
2023/04/04 01:28:36;;;;;;;10.25;4.45;;;2.40;99.90;;;;;;5095228;28;20047;-67
2023/04/04 01:31:07;;;;;;;10.50;4.80;;;2.20;99.90;;;;;;5094042;28;20048;-67
2023/04/04 01:33:40;;;;;;;9.02;4.63;;;2.20;99.90;;;;;;5094215;28;20055;-67
2023/04/04 01:36:28;;;;;;;12.48;4.97;;;2.30;99.90;;;;;;5095177;28;20062;-68
2023/04/04 01:39:05;;;;;;;10.00;4.88;;;2.10;99.90;;;;;;5093824;28;20135;-67
2023/04/04 01:41:34;;;;;;;8.50;4.80;;;2.40;99.90;;;;;;5095386;28;20079;-67
2023/04/04 01:44:00;;;;;;;11.05;5.35;;;2.10;99.90;;;;;;5095298;28;20665;-67
2023/04/04 01:46:26;;;;;;;11.40;5.15;;;2.30;99.90;;;;;;5095012;28;20112;-68
2023/04/04 01:48:52;;;;;;;13.38;5.28;;;2.10;99.90;;;;;;5093829;28;20040;-67
2023/04/04 01:51:18;;;;;;;8.45;5.00;;;2.10;99.90;;;;;;5093734;28;20040;-67
2023/04/04 01:53:44;;;;;;;12.63;5.65;;;;;;;;;;5094623;28;20094;-67
2023/04/04 01:56:10;;;;;;;13.25;5.72;;;2.00;99.90;;;;;;5094860;28;20048;-70
2023/04/04 01:58:36;;;;;;;9.07;5.05;;;1.90;99.90;;;;;;5094549;28;20051;-68
2023/04/04 02:01:02;;;;;;;12.10;5.55;;;;;;;;;;5093450;28;20400;-71
2023/04/04 02:03:27;;;;;;;11.27;5.22;;;1.90;99.90;;;;;;5094790;28;20131;-67
2023/04/04 02:05:53;;;;;;;12.05;5.97;;;1.90;99.90;;;;;;5094718;28;20139;-67
2023/04/04 02:08:19;;;;;;;8.30;5.17;;;1.70;99.90;;;;;;5093975;28;20048;-67
2023/04/04 02:10:45;;;;;;;12.70;5.53;;;;;;;;;;5094785;28;20339;-67
2023/04/04 02:13:11;;;;;;;9.75;5.88;;;;;;;;;;5094547;28;20282;-67
2023/04/04 02:15:36;;;;;;;10.00;5.07;;;1.60;99.90;;;;;;5094468;28;20083;-67
2023/04/04 02:18:02;;;;;;;13.27;5.85;;;1.80;99.90;;;;;;5094326;28;20079;-67
2023/04/04 02:20:29;;;;;;;11.55;5.90;;;;;;;;;;5094339;28;20055;-68
2023/04/04 02:22:55;;;;;;;;;;;1.50;99.90;;;;;;5094267;28;20489;-67
2023/04/04 02:25:21;;;;;;;12.05;5.75;;;;;;;;;;5094378;28;19924;-68
2023/04/04 02:27:47;;;;;;;12.20;6.07;;;1.70;99.90;;;;;;5094267;28;20052;-67
2023/04/04 02:30:13;;;;;;;11.85;5.60;;;;;;;;;;5094164;28;20054;-71
2023/04/04 02:32:39;;;;;;;11.35;5.78;;;1.40;99.90;;;;;;5094031;28;20123;-67
2023/04/04 02:35:05;;;;;;;11.80;5.97;;;1.40;99.90;;;;;;5093977;28;20173;-70
2023/04/04 02:37:31;;;;;;;9.82;6.45;;;;;;;;;;5093767;28;20048;-67
2023/04/04 02:39:57;;;;;;;12.57;6.28;;;1.50;99.90;;;;;;5092922;28;20126;-67
2023/04/04 02:42:23;;;;;;;10.68;5.93;;;;;;;;;;5093844;28;20177;-67
2023/04/04 02:44:49;;;;;;;11.48;6.10;;;1.10;99.90;;;;;;5092693;28;20059;-69
2023/04/04 02:47:15;;;;;;;13.63;6.32;;;;;;;;;;5092715;28;20043;-69
2023/04/04 02:49:42;;;;;;;12.48;6.03;;;;;;;;;;5093874;28;20055;-67
2023/04/04 02:52:08;;;;;;;9.77;6.50;;;;;;;;;;5093190;28;20480;-67
2023/04/04 02:54:34;;;;;;;12.90;6.68;;;;;;;;;;5093635;28;20113;-68
2023/04/04 02:57:00;;;;;;;13.73;6.00;;;;;;;;;;5093551;28;20046;-67
2023/04/04 02:59:27;;;;;;;10.20;5.80;;;;;;;;;;5093621;28;20051;-68
2023/04/04 03:01:53;;;;;;;14.55;6.40;;;;;;;;;;5093557;28;20125;-68
2023/04/04 03:04:19;;;;;;;9.23;5.95;;;;;;;;;;5093498;28;20055;-68
2023/04/04 03:06:47;;;;;;;13.63;6.07;;;1.20;99.90;;;;;;5093072;28;20100;-67
2023/04/04 03:09:13;;;;;;;11.15;6.15;;;;;;;;;;5093173;28;20450;-68
2023/04/04 03:11:39;;;;;;;10.32;6.15;;;;;;;;;;5092610;28;20131;-68
2023/04/04 03:14:06;;;;;;;15.43;6.57;;;;;;;;;;5093390;28;20044;-68
2023/04/04 03:16:32;;;;;;;13.82;6.70;;;;;;;;;;5093297;28;20093;-68
2023/04/04 03:18:58;;;;;;;9.02;5.80;;;;;;;;;;5093505;28;20151;-68
2023/04/04 03:21:24;;;;;;;11.27;6.15;;;;;;;;;;5092899;28;20050;-68
2023/04/04 03:23:50;;;;;;;12.55;6.53;;;;;;;;;;5092841;28;20564;-68
2023/04/04 03:26:16;;;;;;;10.90;6.10;;;0.80;99.90;;;;;;5092903;28;20083;-71
2023/04/04 03:28:42;;;;;;;12.10;6.00;;;;;;;;;;5093162;28;20060;-69
2023/04/04 03:31:08;;;;;;;9.68;6.35;;;0.60;99.90;;;;;;5093056;28;20408;-68
2023/04/04 03:33:37;;;;;;;13.73;6.20;;;0.70;99.90;;;;;;5093068;28;20531;-68
2023/04/04 03:36:03;;;;;;;11.98;6.30;;;;;;;;;;5092680;28;20177;-68
2023/04/04 03:38:29;;;;;;;11.88;6.43;;;0.60;99.90;;;;;;5092814;28;20055;-68
2023/04/04 03:41:02;;;;;;;15.37;6.60;;;1.00;99.90;;;;;;5092852;28;20472;-68
2023/04/04 03:43:29;;;;;;;11.20;6.75;;;;;;;;;;5092818;28;20317;-68
2023/04/04 03:45:59;;;;;;;11.82;6.35;;;;;;;;;;5092785;28;20079;-68
2023/04/04 03:48:24;;;;;;;12.85;6.95;;;0.50;99.90;;;;;;5092558;28;20047;-67
2023/04/04 03:50:50;;;;;;;13.20;6.37;;;;;;;;;;5093081;28;20051;-67
2023/04/04 03:53:16;;;;;;;12.90;6.80;;;0.50;99.90;;;;;;5092702;28;20278;-72
2023/04/04 03:55:42;;;;;;;13.87;7.03;;;;;;;;;;5092784;28;20047;-68
2023/04/04 03:58:08;;;;;;;14.25;6.68;;;0.80;99.90;;;;;;5092697;28;20036;-68
2023/04/04 04:00:34;;;;;;;11.52;6.95;;;;;;;;;;5092526;28;20137;-68
2023/04/04 04:03:00;;;;;;;13.38;6.40;;;0.50;99.90;;;;;;5091945;28;20480;-68
2023/04/04 04:05:26;;;;;;;10.38;6.30;;;;;;;;;;5091208;28;20108;-68
2023/04/04 04:07:52;;;;;;;10.88;6.53;;;;;;;;;;5092350;28;20059;-72
2023/04/04 04:10:18;;;;;;;10.70;6.80;;;0.40;99.90;;;;;;5092391;28;20139;-68
2023/04/04 04:12:44;;;;;;;11.20;6.60;;;;;;;;;;5092020;28;20135;-68
2023/04/04 04:15:10;;;;;;;12.35;7.07;;;;;;;;;;5092403;28;20453;-68
2023/04/04 04:17:40;;;;;;;13.45;6.90;;;;;;;;;;5091780;28;20495;-68
2023/04/04 04:20:10;;;;;;;12.88;6.45;;;;;;;;;;5092665;28;20442;-68
2023/04/04 04:22:36;;;;;;;13.52;6.95;;;;;;;;;;5091816;28;20446;-68
2023/04/04 04:25:03;;;;;;;11.68;6.80;;;;;;;;;;5090960;28;20048;-68
2023/04/04 04:27:29;;;;;;;12.95;6.78;;;;;;;;;;5091915;28;20059;-68
2023/04/04 04:29:58;;;;;;;12.55;6.32;;;;;;;;;;5092208;28;20461;-68
2023/04/04 04:32:25;;;;;;;17.58;6.55;;;;;;;;;;5091892;28;20514;-68
2023/04/04 04:34:51;;;;;;;11.27;6.40;;;0.60;99.90;;;;;;5092027;28;20098;-68
2023/04/04 04:37:17;;;;;;;14.55;7.03;;;;;;;;;;5092136;28;20224;-68
2023/04/04 04:39:43;;;;;;;9.18;5.93;;;;;;;;;;5092128;28;20040;-68
2023/04/04 04:42:09;;;;;;;14.43;6.63;;;0.60;99.90;;;;;;5092135;28;20044;-68
2023/04/04 04:44:35;;;;;;;15.88;6.78;;;;;;;;;;5092066;28;20105;-68
2023/04/04 04:47:02;;;;;;;12.52;6.57;;;0.60;99.90;;;;;;5091659;28;20470;-72
2023/04/04 04:49:29;;;;;;;11.80;6.45;;;;;;;;;;5092005;28;20366;-68
2023/04/04 04:51:55;;;;;;;12.68;6.55;;;;;;;;;;5091919;28;20403;-68
2023/04/04 04:54:21;;;;;;;9.90;5.82;;;;;;;;;;5091978;28;20048;-67
2023/04/04 04:56:47;;;;;;;12.27;6.38;;;;;;;;;;5091899;28;20131;-69
2023/04/04 04:59:14;;;;;;;10.30;6.50;;;;;;;;;;5091999;28;20052;-69
2023/04/04 05:01:40;;;;;;;16.00;6.57;;;;;;;;;;5091796;28;20087;-68
2023/04/04 05:04:06;;;;;;;14.60;6.63;;;;;;;;;;5091984;28;20048;-68
2023/04/04 05:06:32;;;;;;;11.20;7.68;;;;;;;;;;5091867;28;20051;-73
2023/04/04 05:08:58;;;;;;;11.60;6.28;;;;;;;;;;5091949;28;20056;-68
2023/04/04 05:11:25;;;;;;;10.95;6.15;;;;;;;;;;5092128;28;20094;-68
2023/04/04 05:13:51;;;;;;;11.05;6.40;;;;;;;;;;5092111;28;20146;-68
2023/04/04 05:16:19;;;;;;;;;;;;;;;;;;5091924;28;20044;-68
2023/04/04 05:18:45;;;;;;;14.30;6.57;;;;;;;;;;5091670;28;19924;-68
2023/04/04 05:21:11;;;;;;;12.63;6.22;;;;;;;;;;5090810;28;20118;-69
2023/04/04 05:23:37;;;;;;;11.40;6.30;;;0.40;99.90;;;;;;5091762;28;20055;-68
2023/04/04 05:26:03;;;;;;;12.93;5.53;;;;;;;;;;5091383;28;20044;-68
2023/04/04 05:28:29;;;;;;;10.15;5.60;;;;;;;;;;5091749;28;20073;-69
2023/04/04 05:30:55;;;;;;;7.65;5.45;;;;;;;;;;5091111;28;20507;-68
2023/04/04 05:33:22;;;;;;;11.70;5.75;;;;;;;;;;5091674;28;20047;-68
2023/04/04 05:35:48;;;;;;;9.05;5.20;;;;;;;;;;5092014;28;20123;-81
2023/04/04 05:38:14;;;;;;;10.20;6.18;;;;;;;;;;5092013;28;20090;-71
2023/04/04 05:40:40;;;;;;;12.65;6.40;;;;;;;;;;5094761;28;20044;-69
2023/04/04 05:43:08;;;;;;;15.32;5.70;;;;;;;;;;5094923;28;20073;-69
2023/04/04 05:45:34;;;;;;;8.85;5.75;;;;;;;;;;5094490;28;20056;-69
2023/04/04 05:48:00;;;;;;;;;;;1.20;99.90;;;;;;5095102;28;20122;-69
2023/04/04 05:50:26;;;;;;;10.93;5.50;;;;;;;;;;5095116;28;20049;-69
2023/04/04 05:52:55;;;;;;;10.57;5.80;;;;;;;;;;5094327;28;20502;-68
2023/04/04 05:55:21;;;;;;;8.65;5.85;;;1.00;99.90;;;;;;5094646;28;20052;-68
2023/04/04 05:57:51;;;;;;;9.68;5.15;;;;;;;;;;5093419;28;20052;-68
2023/04/04 06:00:18;;;;;;;11.02;5.50;;;;;;;;;;5094090;28;20062;-68
2023/04/04 06:02:44;;;;;;;11.70;5.53;;;;;;;;;;5094375;28;20102;-68
2023/04/04 06:05:11;;;;;;;7.97;4.93;;;;;;;;;;5094560;28;20047;-68
2023/04/04 06:07:36;;;;;;;10.82;4.93;;;1.00;99.90;;;;;;5093869;28;20480;-68
2023/04/04 06:10:04;;;;;;;11.10;5.55;;;;;;;;;;5094254;28;20093;-72
2023/04/04 06:12:30;;;;;;;11.63;5.10;;;1.30;99.90;;;;;;5094230;28;20369;-68
2023/04/04 06:14:56;;;;;;;7.38;4.70;;;;;;;;;;5093911;28;20074;-68
2023/04/04 06:17:22;;;;;;;7.47;5.20;;;;;;;;;;5094153;28;20040;-68
2023/04/04 06:19:48;;;;;;;10.10;5.25;;;;;;;;;;5094205;28;20048;-68
2023/04/04 06:22:16;;;;;;;10.32;5.13;;;;;;;;;;5093867;28;20105;-69
2023/04/04 06:24:42;;;;;;;10.25;5.43;;;;;;;;;;5094186;28;20048;-73
2023/04/04 06:27:08;;;;;;;9.85;4.80;;;;;;;;;;5093752;28;20060;-72
2023/04/04 06:29:35;;;;;;;9.63;4.88;;;1.60;99.90;;;;;;5093704;28;20131;-68
2023/04/04 06:32:01;;;;;;;11.63;5.57;;;1.70;99.90;;;;;;5092666;28;20052;-68
2023/04/04 06:34:27;;;;;;;9.02;4.60;;;;;;;;;;5094000;28;20048;-69
2023/04/04 06:36:53;;;;;;;10.45;5.20;;;;;;;;;;5093371;28;20044;-70
2023/04/04 06:39:19;;;;;;;10.63;4.65;;;;;;;;;;5093762;28;20372;-70
2023/04/04 06:41:46;;;;;;;7.13;5.18;;;;;;;;;;5093669;28;20182;-69
2023/04/04 06:44:13;;;;;;;8.93;5.22;;;;;;;;;;5093400;28;20113;-69
2023/04/04 06:46:38;;;;;;;7.07;4.57;;;1.90;99.90;;;;;;5093496;28;20059;-74
2023/04/04 06:49:05;;;;;;;10.35;4.78;;;;;;;;;;5093715;28;20074;-71
2023/04/04 06:51:33;;;;;;;11.00;4.82;;;1.80;99.90;;;;;;5093303;28;20040;-70
2023/04/04 06:54:00;;;;;;;8.20;4.40;;;1.90;99.90;;;;;;5093426;28;20094;-70
2023/04/04 06:56:26;;;;;;;9.27;5.20;;;;;;;;;;5092414;28;20101;-70
2023/04/04 06:58:52;;;;;;;11.77;5.18;;;2.00;99.90;;;;;;5092154;28;20055;-72
2023/04/04 07:01:18;;;;;;;13.80;5.03;;;;;;;;;;5093414;28;20135;-71
2023/04/04 07:03:44;;;;;;;8.52;4.65;;;;;;;;;;5093532;28;20134;-73
2023/04/04 07:06:10;;;;;;;10.20;4.15;;;2.50;99.90;;;;;;5092791;28;20083;-70
2023/04/04 07:08:36;;;;;;;10.73;4.40;;;2.70;99.90;;;;;;5093636;28;20518;-69
2023/04/04 07:11:02;;;;;;;11.55;4.20;;;;;;;;;;5089116;28;20101;-81
2023/04/04 07:13:28;;;;;;;8.40;4.30;;;3.00;99.90;;;;;;5090729;28;20051;-67
2023/04/04 07:15:54;;;;;;;10.40;4.25;;;3.30;99.90;;;;;;5092119;28;20047;-74
2023/04/04 07:18:20;;;;;;;6.50;3.42;;;;;;;;;;5091870;28;20044;-69
2023/04/04 07:20:47;;;;;;;13.35;4.03;;;;;;;;;;5092009;28;20496;-66
2023/04/04 07:23:14;;;;;;;11.50;3.80;;;3.50;99.90;;;;;;5091496;28;20761;-66
2023/04/04 07:25:40;;;;;;;3.92;3.10;;;;;;;;;;5091298;28;20079;-71
2023/04/04 07:28:06;;;;;;;5.50;3.30;;;3.40;99.90;;;;;;5090461;28;20059;-71
2023/04/04 07:30:32;;;;;;;9.27;3.30;;;3.60;99.90;;;;;;5092410;28;20048;-69
2023/04/04 07:33:01;;;;;;;6.15;3.10;;;3.70;99.90;;;;;;5092805;28;20098;-70
2023/04/04 07:35:28;;;;;;;7.63;2.95;;;3.50;99.90;;;;;;5091506;28;20052;-70
2023/04/04 07:37:54;;;;;;;7.88;3.38;;;;;;;;;;5092470;28;20123;-70
2023/04/04 07:40:20;;;;;;;5.93;3.13;;;;;;;;;;5092350;28;20079;-67
2023/04/04 07:42:50;;;;;;;6.20;3.42;;;4.10;99.90;;;;;;5091583;28;20048;-70
2023/04/04 07:45:21;;;;;;;7.57;3.28;;;;;;;;;;5092176;28;20044;-69
2023/04/04 07:47:47;;;;;;;6.15;2.95;;;4.40;99.90;;;;;;5092139;28;20123;-69
2023/04/04 07:50:13;;;;;;;6.05;3.42;;;4.40;99.90;;;;;;5091396;28;20118;-68
2023/04/04 07:52:39;;;;;;;7.47;3.30;;;4.30;99.90;;;;;;5091636;28;20044;-65
2023/04/04 07:55:06;;;;;;;10.02;3.20;;;4.50;99.90;;;;;;5091996;28;20084;-66
2023/04/04 07:57:39;;;;;;;6.10;2.97;;;4.90;99.90;;;;;;5091970;28;20044;-68
2023/04/04 08:00:08;;;;;;;6.18;2.80;;;4.70;99.90;;;;;;5092118;28;20044;-66
2023/04/04 08:02:38;;;;;;;6.20;3.08;;;4.40;99.90;;;;;;5096602;28;20664;-67
2023/04/04 08:05:04;;;;;;;4.57;2.90;;;4.50;99.90;;;;;;5108551;28;20047;-66
2023/04/04 08:07:29;;;;;;;10.05;3.05;;;4.70;99.90;;;;;;5091979;28;20051;-67
2023/04/04 08:09:55;;;;;;;7.10;2.92;;;4.80;99.90;;;;;;5091649;28;20047;-65
2023/04/04 08:12:21;;;;;;;5.72;2.72;;;4.90;99.90;;;;;;5092112;28;20051;-66
2023/04/04 08:14:47;;;;;;;4.85;2.45;;;5.10;99.90;;;;;;5092042;28;20044;-66
2023/04/04 08:17:17;;;;;;;4.57;2.60;;;5.30;99.90;;;;;;5091785;28;20062;-67
2023/04/04 08:19:43;;;;;;;7.75;2.30;;;5.00;99.90;;;;;;5092105;28;20099;-68
2023/04/04 08:22:09;;;;;;;6.90;2.55;;;5.40;99.90;;;;;;5091597;28;20047;-66
2023/04/04 08:24:35;;;;;;;5.53;2.20;;;5.50;99.90;;;;;;5092064;28;20046;-67
2023/04/04 08:27:01;;;;;;;6.00;2.40;;;5.50;99.90;;;;;;5091707;28;20067;-68
2023/04/04 08:29:27;;;;;;;5.32;2.50;;;5.80;99.90;;;;;;5091984;28;20055;-65
2023/04/04 08:31:53;;;;;;;4.35;2.50;;;5.90;99.90;;;;;;5091705;28;20128;-66
2023/04/04 08:34:19;;;;;;;4.78;2.50;;;6.20;99.90;;;;;;5091619;28;20060;-66
2023/04/04 08:36:45;;;;;;;6.72;2.55;;;7.30;99.90;;;;;;5091437;28;20044;-67
2023/04/04 08:39:11;;;;;;;6.70;2.20;;;5.90;99.90;;;;;;5091810;28;20046;-65
2023/04/04 08:41:40;;;;;;;7.05;2.90;;;5.90;99.90;;;;;;5090499;28;20070;-66
2023/04/04 08:44:12;;;;;;;6.13;2.42;;;6.00;99.90;;;;;;5090683;28;20044;-65
2023/04/04 08:46:38;;;;;;;5.78;1.95;;;6.00;99.90;;;;;;5091620;28;20066;-65
2023/04/04 08:49:05;;;;;;;4.13;2.35;;;6.40;99.90;;;;;;5090901;28;20459;-65
2023/04/04 08:51:33;;;;;;;4.47;2.03;;;6.40;99.90;;;;;;5091267;28;20048;-66
2023/04/04 08:53:59;;;;;;;5.95;2.17;;;6.50;99.90;;;;;;5091149;28;20511;-65
2023/04/04 08:56:25;;;;;;;5.30;2.38;;;6.60;99.90;;;;;;5091592;28;20084;-69
2023/04/04 08:58:51;;;;;;;7.47;2.45;;;6.80;99.90;;;;;;5091848;28;20106;-66
2023/04/04 09:01:17;;;;;;;7.05;2.80;;;6.60;99.90;;;;;;5091601;28;20044;-66
2023/04/04 09:03:43;;;;;;;4.82;2.10;;;6.70;99.90;;;;;;5091834;28;20044;-66
2023/04/04 09:06:10;;;;;;;8.48;2.55;;;6.80;99.90;;;;;;5088529;28;20494;-66
2023/04/04 09:08:36;;;;;;;9.55;2.63;;;6.70;99.90;;;;;;5091072;28;20052;-67
2023/04/04 09:11:04;;;;;;;4.22;1.92;;;6.70;99.90;;;;;;5095809;28;20131;-66
2023/04/04 09:13:30;;;;;;;4.63;2.10;;;6.70;99.90;;;;;;5095741;28;20388;-65
2023/04/04 09:15:57;;;;;;;5.30;2.58;;;6.70;99.90;;;;;;5089159;28;20051;-66
2023/04/04 09:18:23;;;;;;;3.80;1.85;;;7.00;99.90;;;;;;5095393;28;20070;-66
2023/04/04 09:20:49;;;;;;;4.78;1.98;;;6.70;99.90;;;;;;5093530;28;20055;-66
2023/04/04 09:23:16;;;;;;;;;;;6.90;99.90;;;;;;5095140;28;20040;-68
2023/04/04 09:25:52;;;;;;;4.22;1.85;;;7.00;99.90;;;;;;5095059;28;20333;-68
2023/04/04 09:28:19;;;;;;;3.60;2.35;;;7.30;99.90;;;;;;5095086;28;20060;-66
2023/04/04 09:30:48;;;;;;;4.78;2.20;;;7.10;99.90;;;;;;5094592;28;20048;-66
2023/04/04 09:33:15;;;;;;;5.90;2.40;;;7.50;99.90;;;;;;5093126;28;20052;-65
2023/04/04 09:36:09;;;;;;;6.07;2.08;;;7.60;99.90;;;;;;5093967;28;20097;-65
2023/04/04 09:38:38;;;;;;;6.45;2.20;;;7.50;99.90;;;;;;5090758;28;20373;-68
2023/04/04 09:41:08;;;;;;;4.78;2.20;;;7.50;99.90;;;;;;5084716;28;20048;-68
2023/04/04 09:43:34;;;;;;;3.67;2.15;;;7.70;99.90;;;;;;5092613;28;20047;-83
2023/04/04 09:46:01;;;;;;;6.57;2.60;;;7.70;99.90;;;;;;5090451;28;20569;-69
2023/04/04 09:48:31;;;;;;;6.72;2.55;;;7.70;99.90;;;;;;5093271;28;20127;-69
2023/04/04 09:51:00;;;;;;;5.50;2.33;;;7.60;99.90;;;;;;5092351;28;20062;-70
2023/04/04 09:53:26;;;;;;;5.00;2.70;;;8.00;99.90;;;;;;5092611;28;20143;-69
2023/04/04 09:55:54;;;;;;;4.97;2.67;;;7.80;99.90;;;;;;5092643;28;20040;-68
2023/04/04 09:58:25;;;;;;;6.03;2.40;;;8.10;99.90;;;;;;5094472;28;20040;-67
2023/04/04 10:01:02;;;;;;;5.90;2.40;;;7.80;99.90;;;;;;5093866;28;20044;-71
2023/04/04 10:03:29;;;;;;;4.68;2.33;;;7.90;99.90;;;;;;5094530;28;20044;-69
2023/04/04 10:06:01;;;;;;;5.82;2.50;;;7.60;99.90;;;;;;5093119;28;20044;-68
2023/04/04 10:08:28;;;;;;;7.68;2.47;;;7.60;99.90;;;;;;5094064;28;20066;-66
2023/04/04 10:11:04;;;;;;;5.57;2.40;;;8.80;99.90;;;;;;5094478;28;20051;-66
2023/04/04 10:13:34;;;;;;;6.95;2.30;;;8.20;99.90;;;;;;5094489;28;20043;-66
2023/04/04 10:16:02;;;;;;;4.78;2.30;;;7.80;99.90;;;;;;5094507;28;20048;-66
2023/04/04 10:18:33;;;;;;;6.43;2.70;;;8.00;99.90;;;;;;5094431;28;20109;-66
2023/04/04 10:21:08;;;;;;;8.38;2.90;;;8.30;99.90;;;;;;5085933;28;20044;-66
2023/04/04 10:23:35;;;;;;;7.03;2.85;;;8.50;99.90;;;;;;5091490;28;20400;-66
2023/04/04 10:26:01;;;;;;;6.03;2.60;;;8.50;99.90;;;;;;5094004;28;20090;-69
2023/04/04 10:28:27;;;;;;;10.90;2.72;;;8.70;99.90;;;;;;5075689;28;20087;-65
2023/04/04 10:31:23;;;;;;;8.32;2.75;;;8.60;99.90;;;;;;5093441;28;20496;-69
2023/04/04 10:34:11;;;;;;;6.72;3.50;;;9.00;99.90;;;;;;5091079;28;20131;-66
2023/04/04 10:36:50;;;;;;;8.65;3.38;;;9.20;99.90;;;;;;5093060;28;20044;-66
2023/04/04 10:39:34;;;;;;;5.80;3.03;;;8.90;99.90;;;;;;5093795;28;20055;-68
2023/04/04 10:42:03;;;;;;;5.47;2.60;;;8.80;99.90;;;;;;5110935;28;20429;-68
2023/04/04 10:44:32;;;;;;;7.43;3.05;;;8.70;99.90;;;;;;5114209;28;20483;-67
2023/04/04 10:47:16;;;;;;;5.72;3.03;;;9.00;99.90;;;;;;5114043;28;20083;-66
2023/04/04 10:49:46;;;;;;;8.32;2.92;;;9.00;99.90;;;;;;5113867;28;20047;-68
2023/04/04 10:52:17;;;;;;;6.20;3.10;;;9.30;99.90;;;;;;5114095;28;20092;-67
2023/04/04 10:54:43;;;;;;;8.10;3.75;;;9.50;99.90;;;;;;5114231;28;20051;-66
2023/04/04 10:57:09;;;;;;;6.60;3.42;;;9.60;99.90;;;;;;5114230;28;20426;-66
2023/04/04 10:59:55;;;;;;;7.78;3.13;;;9.40;99.90;;;;;;5114207;28;20140;-67
2023/04/04 11:02:59;;;;;;;6.50;3.08;;;9.10;99.90;;;;;;5114138;27;20048;-67
2023/04/04 11:05:48;;;;;;;8.75;3.00;;;9.10;99.90;;;;;;5091831;28;20415;-67
2023/04/04 11:08:20;;;;;;;5.28;3.47;;;9.20;99.90;;;;;;5113855;27;20040;-67
2023/04/04 11:10:51;;;;;;;7.53;3.70;;;9.80;99.90;;;;;;5113477;28;20487;-67
2023/04/04 11:13:21;;;;;;;6.35;3.05;;;9.90;99.90;;;;;;5112763;28;20126;-67
2023/04/04 11:15:56;;;;;;;8.25;3.78;;;9.50;99.90;;;;;;5113772;28;20181;-68
2023/04/04 11:18:44;;;;;;;6.70;3.03;;;10.00;99.90;;;;;;5113486;28;20047;-67
2023/04/04 11:21:13;;;;;;;8.23;3.28;;;10.20;99.90;;;;;;5106402;28;20066;-67
2023/04/04 11:23:48;;;;;;;8.43;3.28;;;10.10;99.90;;;;;;5112374;28;20083;-67
2023/04/04 11:26:34;;;;;;;8.15;3.15;;;10.30;99.90;;;;;;5113327;28;20052;-68
2023/04/04 11:29:06;;;;;;;8.80;3.05;;;10.10;99.90;;;;;;5112158;28;20407;-67
2023/04/04 11:31:42;;;;;;;6.03;3.10;;;10.50;99.90;;;;;;5112762;28;20438;-67
2023/04/04 11:34:10;;;;;;;7.95;5.03;;;10.10;99.90;;;;;;5113055;28;20070;-67
2023/04/04 11:36:35;;;;;;;6.63;2.72;;;10.50;99.90;;;;;;5113304;28;20055;-67
2023/04/04 11:39:08;;;;;;;6.97;3.22;;;10.60;99.90;;;;;;5112327;28;20047;-66
2023/04/04 11:41:52;;;;;;;6.18;2.80;;;10.60;99.90;;;;;;5113271;28;20101;-67
2023/04/04 11:44:20;;;;;;;5.85;3.10;;;10.30;99.90;;;;;;5111969;28;20112;-68
2023/04/04 11:46:46;;;;;;;5.10;2.40;;;10.50;99.90;;;;;;5112735;28;20046;-67
2023/04/04 11:49:13;;;;;;;5.18;2.90;;;10.40;99.90;;;;;;5113126;27;20043;-67
2023/04/04 11:51:40;;;;;;;9.00;2.70;;;10.30;99.90;;;;;;5113048;28;20047;-66
2023/04/04 11:54:16;;;;;;;5.07;2.40;;;10.30;99.90;;;;;;5113027;28;20055;-67
2023/04/04 11:56:45;;;;;;;5.60;2.70;;;10.20;99.90;;;;;;5113093;28;20051;-67
2023/04/04 11:59:12;;;;;;;6.80;3.00;;;10.30;99.90;;;;;;5112996;28;20108;-68
2023/04/04 12:01:39;;;;;;;5.90;2.70;;;10.50;99.90;;;;;;5112621;28;20103;-67
2023/04/04 12:04:05;;;;;;;3.78;2.20;;;10.40;99.90;;;;;;5112762;28;20085;-67
2023/04/04 12:06:31;;;;;;;4.18;2.30;;;10.20;99.90;;;;;;5112784;28;20522;-68
2023/04/04 12:08:57;;;;;;;;;;;10.00;99.90;;;;;;5113208;28;20099;-67
2023/04/04 12:11:25;;;;;;;4.80;2.15;;;10.20;99.90;;;;;;5112491;28;20014;-67
2023/04/04 12:13:51;;;;;;;5.55;2.70;;;10.40;99.90;;;;;;5112716;28;20050;-67
2023/04/04 12:16:20;;;;;;;6.95;2.42;;;10.80;99.90;;;;;;5112479;28;20047;-67
2023/04/04 12:18:46;;;;;;;6.65;2.60;;;10.70;99.90;;;;;;5112674;28;20075;-67
2023/04/04 12:21:11;;;;;;;44.42;5.82;;;10.60;99.90;;;;;;5112683;28;20091;-69
2023/04/04 12:23:37;;;;;;;13.15;3.08;;;10.50;99.90;;;;;;5112634;28;20051;-67
2023/04/04 12:26:04;;;;;;;5.35;2.25;;;10.00;99.90;;;;;;5111590;28;20063;-68
2023/04/04 12:28:33;;;;;;;4.10;2.50;;;9.90;99.90;;;;;;5112552;28;20510;-67
2023/04/04 12:31:04;;;;;;;4.68;2.55;;;10.20;99.90;;;;;;5112251;28;20059;-67
2023/04/04 12:33:34;;;;;;;4.90;2.58;;;10.30;99.90;;;;;;5112576;28;20069;-67
2023/04/04 12:36:04;;;;;;;5.57;2.70;;;10.40;99.90;;;;;;5112583;28;20047;-66
2023/04/04 12:38:30;;;;;;;6.07;2.75;;;10.50;99.90;;;;;;5112880;28;20075;-67
2023/04/04 12:40:56;;;;;;;4.43;2.42;;;10.10;99.90;;;;;;5112523;28;20105;-67
2023/04/04 12:43:22;;;;;;;;;;;10.60;99.90;;;;;;5114136;28;20666;-66
2023/04/04 12:45:50;;;;;;;4.70;2.83;;;10.40;99.90;;;;;;5116460;28;19963;-66
2023/04/04 12:48:21;;;;;;;6.18;2.95;;;10.10;99.90;;;;;;5116627;28;20050;-67
2023/04/04 12:50:51;;;;;;;11.55;3.55;;;10.40;99.90;;;;;;5116942;28;20122;-67
2023/04/04 12:53:25;;;;;;;8.80;3.50;;;10.30;99.90;;;;;;5115466;28;20134;-67
2023/04/04 12:55:52;;;;;;;6.30;2.95;;;10.60;99.90;;;;;;5116654;28;20051;-67
2023/04/04 12:58:24;;;;;;;7.57;3.13;;;10.90;99.90;;;;;;5116529;28;20126;-67
2023/04/04 13:00:51;;;;;;;6.18;3.22;;;10.90;99.90;;;;;;5116195;27;20083;-67
2023/04/04 13:03:23;;;;;;;6.78;2.95;;;10.80;99.90;;;;;;5116330;27;20048;-67
2023/04/04 13:05:49;;;;;;;6.18;3.47;;;10.80;99.90;;;;;;5116764;28;20058;-67
2023/04/04 13:08:16;;;;;;;7.25;3.38;;;11.00;99.90;;;;;;5116299;28;20120;-67
2023/04/04 13:11:03;;;;;;;9.95;3.08;;;10.80;99.90;;;;;;5116209;28;20340;-67
2023/04/04 13:13:58;;;;;;;6.72;3.05;;;10.80;99.90;;;;;;5116167;28;20051;-68
2023/04/04 13:16:33;;;;;;;9.07;3.50;;;11.40;99.90;;;;;;5116217;28;20048;-68
2023/04/04 13:18:58;;;;;;;5.57;3.60;;;11.30;99.90;;;;;;5116057;28;20056;-68
2023/04/04 13:21:25;;;;;;;;;;;11.20;99.90;;;;;;5116427;28;20078;-67
2023/04/04 13:23:50;;;;;;;4.97;3.40;;;11.20;99.90;;;;;;5115951;28;20014;-66
2023/04/04 13:26:16;;;;;;;;;;;11.10;99.90;;;;;;5116121;28;20189;-67
2023/04/04 13:28:42;;;;;;;4.93;3.33;;;11.10;99.90;;;;;;5115262;27;20267;-67